Time;durP1;ratioP1;P1;durP2;ratioP2;P2;SDS_P1;SDS_P2;PMS_P1;PMS_P2;Temp;Humidity;BMP_temperature;BMP_pressure;BME280_temperature;BME280_humidity;BME280_pressure;Samples;Min_cycle;Max_cycle;Signal;HPM_P1;HPM_P2
2022/06/25 00:02:24;;;;;;;10.98;5.38;;;16.60;99.90;;;;;;5090579;28;20383;-59
2022/06/25 00:07:34;;;;;;;8.82;5.00;;;16.50;99.90;;;;;;5070477;28;20035;-60
2022/06/25 00:10:00;;;;;;;14.35;5.65;;;16.40;99.90;;;;;;5070525;28;20032;-60
2022/06/25 00:12:31;;;;;;;5.05;4.60;;;16.40;99.90;;;;;;5069998;28;20025;-60
2022/06/25 00:14:57;;;;;;;6.50;5.80;;;16.40;99.90;;;;;;5056146;28;20051;-59
2022/06/25 00:17:23;;;;;;;7.78;5.75;;;16.40;99.90;;;;;;5090196;28;20470;-60
2022/06/25 00:19:48;;;;;;;9.30;6.22;;;16.40;99.90;;;;;;5090808;28;20471;-59
2022/06/25 00:22:14;;;;;;;11.15;6.15;;;16.40;99.90;;;;;;5089791;28;20073;-60
2022/06/25 00:24:39;;;;;;;8.02;6.30;;;16.40;99.90;;;;;;5089048;28;20434;-60
2022/06/25 00:27:05;;;;;;;8.68;6.75;;;16.40;99.90;;;;;;5069568;28;20073;-60
2022/06/25 00:29:31;;;;;;;9.13;6.72;;;16.40;99.90;;;;;;5070231;28;20036;-60
2022/06/25 00:31:56;;;;;;;9.05;6.05;;;16.30;99.90;;;;;;5069968;28;20035;-60
2022/06/25 00:34:22;;;;;;;9.18;7.47;;;16.30;99.90;;;;;;5069748;28;20389;-59
2022/06/25 00:36:47;;;;;;;10.90;7.18;;;16.20;99.90;;;;;;5088565;28;20535;-60
2022/06/25 00:39:13;;;;;;;15.50;8.13;;;16.30;99.90;;;;;;5090211;28;20043;-59
2022/06/25 00:41:38;;;;;;;9.40;6.57;;;16.20;99.90;;;;;;5089465;28;20024;-59
2022/06/25 00:44:08;;;;;;;10.48;7.85;;;16.20;99.90;;;;;;5089946;28;20535;-59
2022/06/25 00:46:34;;;;;;;11.95;8.75;;;16.20;99.90;;;;;;5073316;28;20162;-60
2022/06/25 00:48:59;;;;;;;13.18;8.10;;;16.20;99.90;;;;;;5070079;28;20466;-59
2022/06/25 00:51:27;;;;;;;10.70;7.38;;;16.10;99.90;;;;;;5069831;28;20040;-59
2022/06/25 00:53:56;;;;;;;11.80;9.10;;;16.10;99.90;;;;;;5069593;28;20023;-59
2022/06/25 00:56:24;;;;;;;9.05;7.95;;;16.10;99.90;;;;;;5071315;28;20051;-60
2022/06/25 00:58:52;;;;;;;17.15;9.68;;;16.10;99.90;;;;;;5069729;28;20028;-60
2022/06/25 01:01:19;;;;;;;15.18;10.00;;;16.20;99.90;;;;;;5069770;28;20103;-59
2022/06/25 01:03:44;;;;;;;10.15;9.05;;;16.10;99.90;;;;;;5069868;28;20027;-60
2022/06/25 01:06:10;;;;;;;12.73;9.63;;;16.10;99.90;;;;;;5086216;28;20036;-59
2022/06/25 01:08:35;;;;;;;16.50;9.68;;;16.10;99.90;;;;;;5094107;28;20070;-57
2022/06/25 01:11:02;;;;;;;13.98;9.35;;;16.10;99.90;;;;;;5094242;28;20039;-58
2022/06/25 01:13:29;;;;;;;12.23;9.65;;;16.10;99.90;;;;;;5094154;28;20028;-56
2022/06/25 01:15:54;;;;;;;11.77;9.43;;;16.20;99.90;;;;;;5080122;28;20103;-57
2022/06/25 01:18:20;;;;;;;11.07;8.70;;;16.10;99.90;;;;;;5073789;28;20071;-58
2022/06/25 01:20:45;;;;;;;13.73;10.43;;;16.20;99.90;;;;;;5074410;28;20090;-58
2022/06/25 01:23:12;;;;;;;13.73;9.48;;;16.10;99.90;;;;;;5073419;28;20024;-58
2022/06/25 01:25:39;;;;;;;12.02;9.25;;;16.20;99.90;;;;;;5083936;28;20482;-58
2022/06/25 01:28:05;;;;;;;16.55;9.85;;;16.10;99.90;;;;;;5093667;28;20032;-59
2022/06/25 01:30:31;;;;;;;11.27;9.57;;;16.10;99.90;;;;;;5093923;28;20024;-59
2022/06/25 01:32:56;;;;;;;13.80;8.80;;;16.10;99.90;;;;;;5093409;28;20039;-59
2022/06/25 01:35:22;;;;;;;13.32;8.63;;;16.10;99.90;;;;;;5074234;28;20073;-59
2022/06/25 01:37:48;;;;;;;13.02;9.15;;;16.10;99.90;;;;;;5073012;28;20596;-58
2022/06/25 01:40:13;;;;;;;11.93;8.73;;;16.00;99.90;;;;;;5072991;28;20031;-59
2022/06/25 01:45:24;;;;;;;15.32;7.88;;;16.00;99.90;;;;;;5073338;28;20073;-60
2022/06/25 01:47:50;;;;;;;12.05;8.40;;;16.00;99.90;;;;;;5073508;28;20054;-58
2022/06/25 01:50:16;;;;;;;14.05;8.23;;;16.00;99.90;;;;;;5072786;28;20035;-59
2022/06/25 01:52:48;;;;;;;11.05;8.27;;;16.00;99.90;;;;;;5072519;28;20028;-57
2022/06/25 01:55:14;;;;;;;12.00;8.73;;;16.10;99.90;;;;;;5081096;28;20436;-58
2022/06/25 01:57:40;;;;;;;13.57;7.93;;;16.00;99.90;;;;;;5072756;28;20040;-60
2022/06/25 02:00:08;;;;;;;11.27;7.65;;;16.00;99.90;;;;;;5072836;28;20561;-60
2022/06/25 02:02:35;;;;;;;13.25;7.68;;;16.00;99.90;;;;;;5091079;28;20131;-60
2022/06/25 02:05:01;;;;;;;8.88;7.20;;;16.00;99.90;;;;;;5092865;28;20036;-59
2022/06/25 02:07:26;;;;;;;8.32;6.85;;;16.10;99.90;;;;;;5092911;28;20077;-60
2022/06/25 02:09:52;;;;;;;7.45;6.15;;;16.10;99.90;;;;;;5080345;28;20036;-59
2022/06/25 02:12:17;;;;;;;8.13;5.38;;;16.10;99.90;;;;;;5071993;28;20043;-59
2022/06/25 02:14:43;;;;;;;12.50;6.22;;;16.10;99.90;;;;;;5085245;28;20027;-60
2022/06/25 02:17:08;;;;;;;6.45;5.78;;;16.10;99.90;;;;;;5092288;28;20111;-60
2022/06/25 02:19:34;;;;;;;6.00;5.40;;;16.10;99.90;;;;;;5082592;28;20505;-59
2022/06/25 02:21:59;;;;;;;9.20;5.47;;;16.10;99.90;;;;;;5072198;28;20020;-60
2022/06/25 02:24:25;;;;;;;12.30;5.85;;;16.10;99.90;;;;;;5072447;28;20035;-60
2022/06/25 02:26:50;;;;;;;8.80;6.10;;;16.00;99.90;;;;;;5072320;28;20017;-60
2022/06/25 02:29:16;;;;;;;10.88;5.88;;;16.00;99.90;;;;;;5078465;28;20028;-60
2022/06/25 02:31:42;;;;;;;9.05;5.85;;;16.00;99.90;;;;;;5092510;28;20525;-59
2022/06/25 02:34:07;;;;;;;8.23;5.93;;;16.00;99.90;;;;;;5092651;28;20036;-60
2022/06/25 02:36:33;;;;;;;7.82;5.55;;;16.00;99.90;;;;;;5092447;28;20036;-59
2022/06/25 02:38:58;;;;;;;9.23;5.53;;;16.00;99.90;;;;;;5074501;28;20033;-59
2022/06/25 02:41:24;;;;;;;6.63;5.60;;;15.90;99.90;;;;;;5071854;28;20024;-61
2022/06/25 02:43:49;;;;;;;6.47;5.45;;;15.90;99.90;;;;;;5072105;28;20020;-61
2022/06/25 02:46:15;;;;;;;7.55;5.15;;;15.80;99.90;;;;;;5072095;28;20025;-60
2022/06/25 02:48:40;;;;;;;12.10;6.05;;;15.80;99.90;;;;;;5072023;28;20025;-60
2022/06/25 02:51:06;;;;;;;11.90;5.93;;;15.80;99.90;;;;;;5071845;28;20024;-60
2022/06/25 02:53:32;;;;;;;10.95;5.82;;;15.70;99.90;;;;;;5071654;28;20071;-60
2022/06/25 02:58:56;;;;;;;6.25;5.32;;;15.70;99.90;;;;;;5071534;28;20051;-59
2022/06/25 03:01:23;;;;;;;12.10;5.47;;;15.60;99.90;;;;;;5095560;22;20773;-65
2022/06/25 03:03:50;;;;;;;6.07;4.75;;;15.60;99.90;;;;;;5070114;28;20027;-65
2022/06/25 03:06:15;;;;;;;11.57;6.38;;;15.70;99.90;;;;;;5088004;28;20104;-64
2022/06/25 03:08:41;;;;;;;12.15;5.78;;;15.60;99.90;;;;;;5091472;28;20476;-65
2022/06/25 03:11:07;;;;;;;5.22;4.53;;;15.60;99.90;;;;;;5091429;28;20413;-64
2022/06/25 03:13:35;;;;;;;8.30;5.53;;;15.60;99.90;;;;;;5091053;28;20052;-65
2022/06/25 03:16:02;;;;;;;10.57;4.95;;;15.60;99.90;;;;;;5077179;28;20046;-64
2022/06/25 03:18:27;;;;;;;7.57;4.78;;;15.60;99.90;;;;;;5071564;28;20028;-65
2022/06/25 03:20:53;;;;;;;10.80;4.95;;;15.60;99.90;;;;;;5070424;28;20179;-65
2022/06/25 03:23:19;;;;;;;6.75;4.53;;;15.60;99.90;;;;;;5071041;28;20028;-65
2022/06/25 03:25:45;;;;;;;10.57;4.57;;;15.60;99.90;;;;;;5082177;28;20024;-64
2022/06/25 03:28:10;;;;;;;10.82;5.45;;;15.60;99.90;;;;;;5091637;28;20024;-65
2022/06/25 03:30:36;;;;;;;9.80;5.03;;;15.60;99.90;;;;;;5090114;28;20039;-65
2022/06/25 03:33:02;;;;;;;5.55;4.72;;;15.60;99.90;;;;;;5090892;28;20036;-65
2022/06/25 03:35:28;;;;;;;7.75;4.63;;;15.60;99.90;;;;;;5081450;28;20397;-64
2022/06/25 03:37:54;;;;;;;5.53;4.65;;;15.60;99.90;;;;;;5070389;28;20485;-64
2022/06/25 03:40:19;;;;;;;7.15;4.55;;;15.60;99.90;;;;;;5071079;28;20051;-64
2022/06/25 03:42:45;;;;;;;6.65;4.57;;;15.60;99.90;;;;;;5070009;28;20791;-65
2022/06/25 03:45:11;;;;;;;6.82;4.28;;;15.60;99.90;;;;;;5077075;28;20032;-64
2022/06/25 03:47:37;;;;;;;8.32;4.70;;;15.70;99.90;;;;;;5090968;28;20514;-65
2022/06/25 03:50:03;;;;;;;10.88;4.90;;;15.60;99.90;;;;;;5090877;28;20028;-64
2022/06/25 03:52:28;;;;;;;8.98;4.38;;;15.70;99.90;;;;;;5076684;28;20463;-64
2022/06/25 03:54:54;;;;;;;12.43;4.70;;;15.70;99.90;;;;;;5070818;28;20082;-65
2022/06/25 03:57:20;;;;;;;5.32;4.82;;;15.70;99.90;;;;;;5070494;28;20028;-65
2022/06/25 03:59:45;;;;;;;6.28;4.22;;;15.70;99.90;;;;;;5070383;28;20028;-65
2022/06/25 04:02:11;;;;;;;8.48;4.18;;;15.70;99.90;;;;;;5070015;28;20425;-64
2022/06/25 04:04:36;;;;;;;3.95;3.55;;;15.70;99.90;;;;;;5071547;28;20033;-65
2022/06/25 04:07:02;;;;;;;7.18;4.60;;;15.80;99.90;;;;;;5089977;28;20101;-65
2022/06/25 04:09:27;;;;;;;5.65;4.90;;;15.80;99.90;;;;;;5090648;28;20429;-65
2022/06/25 04:11:53;;;;;;;5.72;4.30;;;15.80;99.90;;;;;;5090082;28;20030;-65
2022/06/25 04:14:18;;;;;;;8.55;4.63;;;15.90;99.90;;;;;;5090107;28;20113;-65
2022/06/25 04:16:44;;;;;;;5.30;4.18;;;15.90;99.90;;;;;;5071178;28;20119;-65
2022/06/25 04:19:10;;;;;;;11.10;4.95;;;15.90;99.90;;;;;;5074310;28;20103;-65
2022/06/25 04:21:35;;;;;;;7.65;4.63;;;15.90;99.90;;;;;;5089763;28;20024;-65
2022/06/25 04:24:01;;;;;;;8.77;5.05;;;16.00;99.90;;;;;;5090435;28;20437;-65
2022/06/25 04:26:26;;;;;;;6.72;4.43;;;16.00;99.90;;;;;;5073712;28;20025;-65
2022/06/25 04:29:04;;;;;;;9.10;4.95;;;16.00;99.90;;;;;;5069700;28;20548;-65
2022/06/25 04:31:34;;;;;;;8.40;5.30;;;16.00;99.90;;;;;;5069694;28;20028;-66
2022/06/25 04:34:00;;;;;;;7.25;5.05;;;16.00;99.90;;;;;;5070151;28;20032;-65
2022/06/25 04:36:27;;;;;;;6.88;4.82;;;16.10;99.90;;;;;;5085599;28;20398;-64
2022/06/25 04:38:53;;;;;;;12.02;5.15;;;16.00;99.90;;;;;;5090546;28;20498;-65
2022/06/25 04:41:19;;;;;;;7.80;5.18;;;16.10;99.90;;;;;;5089510;28;20024;-65
2022/06/25 04:43:44;;;;;;;6.30;4.85;;;16.10;99.90;;;;;;5070428;28;20035;-65
2022/06/25 04:46:10;;;;;;;6.72;4.78;;;16.10;99.90;;;;;;5083407;28;20070;-64
2022/06/25 04:48:36;;;;;;;14.25;5.05;;;16.20;99.90;;;;;;5089651;28;20062;-65
2022/06/25 04:51:01;;;;;;;9.98;5.88;;;16.20;99.90;;;;;;5089361;28;20048;-65
2022/06/25 04:53:27;;;;;;;8.75;5.90;;;16.20;99.90;;;;;;5089675;28;20020;-65
2022/06/25 04:55:52;;;;;;;10.07;5.10;;;16.30;99.90;;;;;;5077908;28;20501;-65
2022/06/25 04:58:18;;;;;;;7.05;5.22;;;16.30;99.90;;;;;;5069610;28;20029;-65
2022/06/25 05:00:44;;;;;;;17.65;6.47;;;16.30;99.90;;;;;;5069279;28;20052;-64
2022/06/25 05:03:10;;;;;;;11.73;7.45;;;16.40;99.90;;;;;;5069359;28;20059;-65
2022/06/25 05:05:36;;;;;;;7.68;5.90;;;16.40;99.90;;;;;;5075887;28;20078;-64
2022/06/25 05:08:02;;;;;;;11.68;6.40;;;16.50;99.90;;;;;;5089588;28;20062;-65
2022/06/25 05:10:27;;;;;;;10.65;6.47;;;16.50;99.90;;;;;;5088923;28;20059;-64
2022/06/25 05:13:11;;;;;;;6.50;5.80;;;16.60;99.90;;;;;;5089375;28;20038;-65
2022/06/25 05:15:39;;;;;;;8.07;5.80;;;16.60;99.90;;;;;;5074456;28;20032;-65
2022/06/25 05:18:05;;;;;;;7.93;5.88;;;16.70;99.90;;;;;;5069323;28;20471;-65
2022/06/25 05:20:31;;;;;;;8.43;6.68;;;16.70;99.90;;;;;;5069120;28;20070;-65
2022/06/25 05:22:56;;;;;;;12.90;6.03;;;16.70;99.90;;;;;;5068798;28;20028;-64
2022/06/25 05:25:22;;;;;;;10.32;5.97;;;16.80;99.90;;;;;;5081185;28;20417;-64
2022/06/25 05:27:47;;;;;;;8.90;6.30;;;16.80;99.90;;;;;;5089225;28;20081;-65
2022/06/25 05:30:13;;;;;;;9.25;6.15;;;16.80;99.90;;;;;;5089551;28;20058;-65
2022/06/25 05:32:39;;;;;;;8.18;5.93;;;16.80;99.90;;;;;;5089057;28;20027;-65
2022/06/25 05:35:04;;;;;;;8.13;5.93;;;16.90;99.90;;;;;;5077049;28;20090;-65
2022/06/25 05:37:30;;;;;;;8.88;5.47;;;16.90;99.90;;;;;;5069107;28;20463;-65
2022/06/25 05:39:55;;;;;;;11.88;6.80;;;16.90;99.90;;;;;;5068889;28;20036;-65
2022/06/25 05:42:21;;;;;;;6.82;6.13;;;17.00;99.90;;;;;;5068216;28;20036;-65
2022/06/25 05:44:47;;;;;;;7.30;5.63;;;17.00;99.90;;;;;;5068820;28;20214;-65
2022/06/25 05:47:13;;;;;;;6.95;6.25;;;17.00;99.90;;;;;;5084945;28;20028;-65
2022/06/25 05:49:39;;;;;;;9.57;6.50;;;17.10;99.90;;;;;;5089721;28;20444;-66
2022/06/25 05:52:05;;;;;;;9.40;7.00;;;17.10;99.90;;;;;;5088241;28;20028;-65
2022/06/25 05:54:30;;;;;;;10.15;7.93;;;17.20;99.90;;;;;;5082439;28;20075;-65
2022/06/25 05:56:56;;;;;;;9.73;6.75;;;17.20;99.90;;;;;;5072596;28;20052;-65
2022/06/25 05:59:21;;;;;;;10.88;6.18;;;17.30;99.90;;;;;;5072472;28;20530;-64
2022/06/25 06:01:47;;;;;;;14.38;5.60;;;17.40;99.90;;;;;;5072373;28;20465;-64
2022/06/25 06:04:12;;;;;;;9.90;5.20;;;17.40;99.90;;;;;;5078599;28;20035;-64
2022/06/25 06:06:38;;;;;;;7.90;5.85;;;17.50;99.90;;;;;;5092464;28;20046;-65
2022/06/25 06:09:03;;;;;;;6.20;5.05;;;17.50;99.90;;;;;;5092866;28;20032;-64
2022/06/25 06:11:29;;;;;;;7.90;5.60;;;17.60;99.90;;;;;;5092113;28;20077;-64
2022/06/25 06:13:54;;;;;;;7.30;4.57;;;17.60;99.90;;;;;;5075814;28;20024;-64
2022/06/25 06:16:20;;;;;;;7.00;5.10;;;17.70;99.90;;;;;;5072766;28;20021;-64
2022/06/25 06:18:45;;;;;;;10.05;4.85;;;17.70;99.90;;;;;;5072353;28;20027;-64
2022/06/25 06:21:11;;;;;;;5.40;4.32;;;17.80;99.90;;;;;;5071378;28;20024;-65
2022/06/25 06:23:36;;;;;;;10.90;4.75;;;17.80;99.90;;;;;;5085707;28;20028;-65
2022/06/25 06:26:02;;;;;;;14.52;5.70;;;17.90;99.90;;;;;;5092275;28;20035;-65
2022/06/25 06:28:27;;;;;;;6.45;3.95;;;18.00;99.90;;;;;;5092260;28;20020;-64
2022/06/25 06:30:53;;;;;;;8.02;4.53;;;18.00;99.90;;;;;;5091992;28;20035;-65
2022/06/25 06:33:18;;;;;;;4.80;3.80;;;18.10;99.90;;;;;;5078161;28;20081;-65
2022/06/25 06:35:44;;;;;;;6.57;3.65;;;18.20;99.90;;;;;;5071524;28;20471;-65
2022/06/25 06:38:09;;;;;;;3.47;2.70;;;18.20;99.90;;;;;;5072240;28;20027;-65
2022/06/25 06:40:35;;;;;;;8.45;3.00;;;18.30;99.90;;;;;;5071527;28;20120;-66
2022/06/25 06:43:00;;;;;;;8.15;3.33;;;18.40;99.90;;;;;;5081511;28;20028;-64
2022/06/25 06:45:26;;;;;;;7.88;3.45;;;18.40;99.90;;;;;;5083967;28;20029;-65
2022/06/25 06:47:52;;;;;;;3.28;2.72;;;18.50;99.90;;;;;;5071388;28;20510;-65
2022/06/25 06:50:18;;;;;;;3.97;3.13;;;18.60;99.90;;;;;;5071075;28;20068;-65
2022/06/25 06:52:43;;;;;;;7.47;3.08;;;18.70;99.90;;;;;;5078877;28;20035;-66
2022/06/25 06:55:09;;;;;;;6.13;3.10;;;18.70;99.90;;;;;;5089673;28;20398;-65
2022/06/25 06:57:35;;;;;;;3.83;3.33;;;18.90;99.90;;;;;;5091487;28;20051;-65
2022/06/25 07:00:04;;;;;;;4.32;2.60;;;18.90;99.90;;;;;;5092152;28;20032;-65
2022/06/25 07:02:30;;;;;;;5.70;2.40;;;18.90;99.90;;;;;;5090087;28;20031;-64
2022/06/25 07:04:56;;;;;;;3.28;2.55;;;19.00;99.90;;;;;;5085540;28;20380;-64
2022/06/25 07:07:21;;;;;;;7.75;2.20;;;19.20;99.90;;;;;;5071497;28;20029;-66
2022/06/25 07:09:47;;;;;;;4.30;2.53;;;19.20;99.90;;;;;;5071502;28;20029;-65
2022/06/25 07:12:12;;;;;;;3.38;2.25;;;19.20;99.90;;;;;;5071007;28;20460;-64
2022/06/25 07:14:38;;;;;;;2.70;1.90;;;19.30;99.90;;;;;;5073487;28;20398;-65
2022/06/25 07:17:03;;;;;;;6.15;3.38;;;19.30;99.90;;;;;;5077881;28;20068;-65
2022/06/25 07:19:29;;;;;;;5.40;2.17;;;19.40;99.90;;;;;;5091247;28;20056;-65
2022/06/25 07:21:55;;;;;;;5.43;2.10;;;19.40;99.90;;;;;;5091009;28;20521;-65
2022/06/25 07:24:21;;;;;;;3.45;1.65;;;19.60;99.90;;;;;;5091376;28;20039;-66
2022/06/25 07:26:48;;;;;;;5.32;2.33;;;19.60;99.90;;;;;;5051505;28;20617;-65
2022/06/25 07:29:14;;;;;;;2.30;1.88;;;19.70;99.90;;;;;;5051040;28;20032;-66
2022/06/25 07:31:40;;;;;;;3.65;1.85;;;19.80;99.90;;;;;;5050672;28;20025;-63
2022/06/25 07:34:05;;;;;;;3.30;1.88;;;19.90;99.90;;;;;;5054542;28;20498;-64
2022/06/25 07:36:31;;;;;;;8.13;1.65;;;19.90;99.90;;;;;;5070645;28;20032;-65
2022/06/25 07:38:57;;;;;;;6.25;1.35;;;20.10;99.90;;;;;;5071345;28;20032;-64
2022/06/25 07:41:22;;;;;;;4.30;1.60;;;20.10;99.90;;;;;;5070008;28;20406;-64
2022/06/25 07:43:48;;;;;;;2.28;1.65;;;20.20;99.90;;;;;;5070199;28;20025;-64
2022/06/25 07:46:14;;;;;;;2.95;1.65;;;20.20;99.90;;;;;;5085941;28;20030;-64
2022/06/25 07:48:40;;;;;;;3.83;1.52;;;20.30;99.90;;;;;;5090176;28;20024;-65
2022/06/25 07:53:50;;;;;;;6.25;2.10;;;20.40;99.90;;;;;;5090581;28;20031;-64
2022/06/25 07:56:16;;;;;;;3.10;1.38;;;20.50;99.90;;;;;;5072194;28;20032;-64
2022/06/25 07:58:41;;;;;;;3.05;1.30;;;20.60;99.90;;;;;;5070284;28;20048;-64
2022/06/25 08:01:07;;;;;;;1.60;1.27;;;20.70;99.90;;;;;;5069845;28;20482;-65
2022/06/25 08:03:32;;;;;;;2.70;1.15;;;20.70;99.90;;;;;;5070251;28;20036;-65
2022/06/25 08:05:58;;;;;;;1.35;1.20;;;20.70;99.90;;;;;;5085212;28;20073;-64
2022/06/25 08:08:25;;;;;;;4.65;1.42;;;20.80;99.90;;;;;;5090083;28;20027;-65
2022/06/25 08:10:51;;;;;;;2.20;1.13;;;20.90;99.90;;;;;;5090233;28;20023;-65
2022/06/25 08:13:17;;;;;;;2.85;1.30;;;20.90;99.90;;;;;;5090193;28;20054;-66
2022/06/25 08:15:43;;;;;;;2.90;1.27;;;21.00;99.90;;;;;;5073624;28;20478;-65
2022/06/25 08:18:08;;;;;;;5.47;1.00;;;21.20;99.90;;;;;;5070080;28;20090;-65
2022/06/25 08:20:34;;;;;;;5.07;1.25;;;21.20;99.90;;;;;;5069871;28;20032;-65
2022/06/25 08:22:59;;;;;;;5.03;1.10;;;21.30;99.90;;;;;;5069720;28;20099;-65
2022/06/25 08:25:25;;;;;;;2.80;1.25;;;21.40;99.90;;;;;;5082548;28;20039;-65
2022/06/25 08:27:53;;;;;;;2.47;1.15;;;21.50;99.90;;;;;;5090138;28;20020;-64
2022/06/25 08:30:21;;;;;;;4.03;1.20;;;21.70;99.90;;;;;;5089819;28;20394;-65
2022/06/25 08:32:47;;;;;;;4.47;1.40;;;21.70;99.90;;;;;;5089737;28;20051;-64
2022/06/25 08:35:13;;;;;;;3.40;1.23;;;21.70;99.90;;;;;;5079278;28;20024;-65
2022/06/25 08:37:42;;;;;;;4.57;1.58;;;21.60;99.90;;;;;;5070032;28;20033;-65
2022/06/25 08:40:09;;;;;;;3.08;1.20;;;21.60;99.90;;;;;;5068964;28;20032;-65
2022/06/25 08:42:35;;;;;;;2.15;1.05;;;21.50;99.90;;;;;;5072051;28;20952;-65
2022/06/25 08:45:01;;;;;;;3.88;1.00;;;21.60;99.90;;;;;;5089741;28;20020;-65
2022/06/25 08:47:26;;;;;;;5.35;1.38;;;21.60;99.90;;;;;;5089547;28;20371;-63
2022/06/25 08:49:53;;;;;;;2.30;1.10;;;21.70;99.90;;;;;;5089416;28;20462;-65
2022/06/25 08:52:19;;;;;;;3.08;1.33;;;21.80;99.90;;;;;;5089232;28;20024;-65
2022/06/25 08:54:46;;;;;;;3.55;1.30;;;21.90;99.90;;;;;;5070865;28;20144;-64
2022/06/25 08:57:12;;;;;;;5.20;1.23;;;22.00;99.90;;;;;;5069739;28;20032;-65
2022/06/25 08:59:38;;;;;;;1.90;1.33;;;22.00;99.90;;;;;;5069569;28;20532;-62
2022/06/25 09:02:04;;;;;;;5.82;2.17;;;22.00;99.90;;;;;;5069065;28;20041;-64
2022/06/25 09:04:30;;;;;;;2.50;1.25;;;22.00;99.90;;;;;;5102643;22;20045;-58
2022/06/25 09:07:14;;;;;;;3.25;1.40;;;22.00;99.90;;;;;;5069757;28;20641;-59
2022/06/25 09:09:44;;;;;;;5.40;1.17;;;22.00;99.90;;;;;;5069604;28;20025;-58
2022/06/25 09:12:13;;;;;;;3.78;1.42;;;22.00;99.90;;;;;;5069301;28;20032;-59
2022/06/25 09:14:39;;;;;;;2.13;1.10;;;22.10;99.90;;;;;;5069229;28;20036;-59
2022/06/25 09:17:09;;;;;;;4.65;1.77;;;22.30;99.90;;;;;;5069381;28;20032;-57
2022/06/25 09:19:40;;;;;;;1.98;1.23;;;22.60;99.90;;;;;;5069488;28;20470;-59
2022/06/25 09:22:08;;;;;;;2.17;1.23;;;22.50;99.90;;;;;;5069313;28;20064;-59
2022/06/25 09:24:54;;;;;;;3.75;1.27;;;22.40;99.90;;;;;;5069305;28;20024;-59
2022/06/25 09:27:36;;;;;;;2.33;1.40;;;22.20;99.90;;;;;;5069579;28;20027;-59
2022/06/25 09:30:16;;;;;;;3.72;1.65;;;22.30;99.90;;;;;;5073311;28;20186;-58
2022/06/25 09:32:59;;;;;;;7.32;1.30;;;22.70;99.90;;;;;;5072635;28;20042;-57
2022/06/25 09:35:31;;;;;;;6.75;1.60;;;22.90;99.90;;;;;;5075625;28;20059;-58
2022/06/25 09:38:01;;;;;;;4.25;1.40;;;23.00;99.90;;;;;;5073239;28;20443;-58
2022/06/25 09:40:28;;;;;;;3.83;1.48;;;23.30;99.90;;;;;;5071962;28;20776;-59
2022/06/25 09:42:55;;;;;;;3.03;1.17;;;23.40;99.90;;;;;;5072403;28;20031;-58
2022/06/25 09:45:21;;;;;;;3.33;1.48;;;23.30;99.90;;;;;;5072878;28;20025;-57
2022/06/25 09:47:46;;;;;;;3.47;1.30;;;23.20;99.90;;;;;;5072532;28;20032;-59
2022/06/25 09:50:15;;;;;;;5.25;2.05;;;23.10;99.90;;;;;;5072633;28;20028;-58
2022/06/25 09:52:55;;;;;;;3.97;1.33;;;23.20;99.90;;;;;;5072180;28;20475;-58
2022/06/25 09:55:24;;;;;;;5.38;1.30;;;23.30;99.90;;;;;;5072437;28;20032;-59
2022/06/25 09:57:51;;;;;;;2.58;1.30;;;23.40;99.90;;;;;;5072856;28;20020;-60
2022/06/25 10:00:18;;;;;;;2.47;1.40;;;23.40;99.90;;;;;;5072689;28;20429;-59
2022/06/25 10:02:46;;;;;;;2.08;1.52;;;23.60;99.90;;;;;;5072462;28;20088;-59
2022/06/25 10:05:12;;;;;;;0.93;0.93;;;23.70;99.90;;;;;;5072660;28;20476;-60
2022/06/25 10:10:26;;;;;;;2.60;1.13;;;24.00;99.90;;;;;;5072910;28;20651;-59
2022/06/25 10:12:52;;;;;;;1.45;1.00;;;23.70;99.90;;;;;;5072299;28;20036;-60
2022/06/25 10:15:19;;;;;;;5.85;1.52;;;23.40;99.90;;;;;;5072376;28;20375;-58
2022/06/25 10:17:49;;;;;;;6.68;1.63;;;23.30;99.90;;;;;;5072531;28;20074;-59
2022/06/25 10:20:16;;;;;;;2.15;1.25;;;23.10;99.90;;;;;;5072558;28;20104;-58
2022/06/25 10:22:44;;;;;;;3.20;1.20;;;23.10;99.90;;;;;;5072078;28;20098;-57
2022/06/25 10:25:12;;;;;;;4.82;1.42;;;23.10;99.90;;;;;;5072213;28;20479;-56
2022/06/25 10:27:46;;;;;;;3.25;1.20;;;23.10;99.90;;;;;;5072354;28;20893;-58
2022/06/25 10:30:14;;;;;;;3.63;1.23;;;23.10;99.90;;;;;;5071576;28;20028;-58
2022/06/25 10:32:47;;;;;;;4.82;2.00;;;23.20;99.90;;;;;;5071301;28;20041;-59
2022/06/25 10:35:32;;;;;;;1.77;1.08;;;23.30;99.90;;;;;;5072096;28;20044;-58
2022/06/25 10:38:07;;;;;;;3.08;1.00;;;23.60;99.90;;;;;;5072125;28;20104;-56
2022/06/25 10:40:46;;;;;;;1.80;1.10;;;24.10;99.90;;;;;;5071252;28;20037;-59
2022/06/25 10:43:36;;;;;;;2.22;0.93;;;24.60;99.90;;;;;;5071837;28;20025;-59
2022/06/25 10:46:36;;;;;;;1.27;0.90;;;25.20;99.90;;;;;;5051753;28;20403;-58
2022/06/25 10:49:11;;;;;;;5.28;2.05;;;25.70;99.90;;;;;;5051352;28;20025;-59
2022/06/25 10:51:52;;;;;;;1.73;0.93;;;26.10;99.90;;;;;;5051587;28;20021;-58
2022/06/25 10:54:24;;;;;;;2.63;1.20;;;25.90;99.90;;;;;;5052414;28;20491;-58
2022/06/25 10:56:52;;;;;;;2.00;0.93;;;25.50;99.90;;;;;;5051796;28;20033;-58
2022/06/25 10:59:35;;;;;;;4.03;1.38;;;25.20;99.90;;;;;;5051536;28;20033;-58
2022/06/25 11:02:04;;;;;;;3.47;1.07;;;24.80;99.90;;;;;;5051302;28;20482;-57
2022/06/25 11:04:31;;;;;;;4.88;1.00;;;24.90;99.90;;;;;;5051435;28;20366;-58
2022/06/25 11:07:14;;;;;;;4.65;0.95;;;25.30;99.90;;;;;;5051552;28;20071;-58
2022/06/25 11:09:50;;;;;;;1.15;0.90;;;25.80;99.90;;;;;;5063881;28;20024;-58
2022/06/25 11:12:17;;;;;;;2.10;0.82;;;26.10;99.90;;;;;;5070810;28;20047;-58
2022/06/25 11:14:42;;;;;;;4.13;1.13;;;25.90;99.90;;;;;;5069990;28;20482;-58
2022/06/25 11:17:10;;;;;;;3.65;1.38;;;25.20;99.90;;;;;;5071306;28;20107;-60
2022/06/25 11:19:37;;;;;;;2.70;1.20;;;24.80;99.90;;;;;;5071239;28;20414;-58
2022/06/25 11:22:03;;;;;;;2.22;1.45;;;24.60;99.90;;;;;;5070846;28;20095;-59
2022/06/25 11:24:30;;;;;;;4.15;1.23;;;24.40;99.90;;;;;;5071368;28;20028;-59
2022/06/25 11:29:51;;;;;;;1.70;1.00;;;24.90;99.90;;;;;;5071364;28;20497;-58
2022/06/25 11:32:28;;;;;;;3.60;1.52;;;25.20;99.90;;;;;;5070764;28;20031;-58
2022/06/25 11:34:57;;;;;;;1.50;1.20;;;25.20;99.90;;;;;;5070816;28;20040;-56
2022/06/25 11:37:23;;;;;;;7.70;1.20;;;25.20;99.90;;;;;;5070549;28;20107;-57
2022/06/25 11:39:49;;;;;;;1.35;1.00;;;25.00;99.90;;;;;;5070387;28;20039;-57
2022/06/25 11:42:16;;;;;;;2.63;1.23;;;25.10;99.90;;;;;;5070433;28;20644;-60
2022/06/25 11:44:46;;;;;;;2.67;0.90;;;25.00;99.90;;;;;;5071113;28;20029;-57
2022/06/25 11:47:14;;;;;;;1.90;0.85;;;25.00;99.90;;;;;;5070589;28;20090;-59
2022/06/25 11:49:42;;;;;;;1.83;1.05;;;24.90;99.90;;;;;;5070355;28;20051;-59
2022/06/25 11:52:09;;;;;;;1.52;1.20;;;24.60;99.90;;;;;;5069506;28;20074;-59
2022/06/25 11:54:36;;;;;;;3.55;1.10;;;24.70;99.90;;;;;;5070436;28;20047;-58
2022/06/25 11:57:04;;;;;;;3.38;1.00;;;24.80;99.90;;;;;;5070545;28;20485;-59
2022/06/25 11:59:33;;;;;;;3.33;1.08;;;24.90;99.90;;;;;;5070492;28;20032;-59
2022/06/25 12:01:59;;;;;;;5.22;1.23;;;24.80;99.90;;;;;;5070060;28;20047;-59
2022/06/25 12:04:26;;;;;;;1.83;0.90;;;25.00;99.90;;;;;;5070237;28;20036;-58
2022/06/25 12:06:52;;;;;;;1.15;0.80;;;25.10;99.90;;;;;;5070736;28;20455;-57
2022/06/25 12:09:20;;;;;;;2.30;1.15;;;25.20;99.90;;;;;;5069933;28;20051;-59
2022/06/25 12:11:53;;;;;;;4.22;1.02;;;25.30;99.90;;;;;;5070444;28;20076;-59
2022/06/25 12:14:27;;;;;;;1.60;0.90;;;25.50;99.90;;;;;;5070172;28;20064;-59
2022/06/25 12:16:53;;;;;;;3.13;1.17;;;25.80;99.90;;;;;;5069883;28;20338;-58
2022/06/25 12:19:20;;;;;;;2.58;1.00;;;25.90;99.90;;;;;;5070190;28;20032;-57
2022/06/25 12:21:46;;;;;;;2.55;1.20;;;25.80;99.90;;;;;;5069840;28;20017;-59
2022/06/25 12:24:13;;;;;;;4.72;1.10;;;25.70;99.90;;;;;;5068921;28;20123;-57
2022/06/25 12:26:41;;;;;;;2.60;1.10;;;25.50;99.90;;;;;;5069906;28;20074;-59
2022/06/25 12:29:13;;;;;;;4.72;1.15;;;25.60;99.90;;;;;;5069989;28;20048;-59
2022/06/25 12:31:50;;;;;;;4.00;1.02;;;25.60;99.90;;;;;;5069727;28;20048;-59
2022/06/25 12:34:15;;;;;;;5.93;1.88;;;25.50;99.90;;;;;;5070220;28;20394;-59
2022/06/25 12:36:41;;;;;;;4.53;1.13;;;25.40;99.90;;;;;;5069933;28;20044;-59
2022/06/25 12:39:30;;;;;;;2.33;0.90;;;25.60;99.90;;;;;;5069854;28;20032;-59
2022/06/25 12:41:55;;;;;;;1.98;1.00;;;25.70;99.90;;;;;;5069710;28;20078;-58
2022/06/25 12:44:21;;;;;;;2.10;1.10;;;25.90;99.90;;;;;;5070028;28;20033;-57
2022/06/25 12:47:10;;;;;;;3.20;0.90;;;26.10;99.90;;;;;;5069932;28;20031;-59
2022/06/25 12:49:53;;;;;;;4.25;1.10;;;25.90;99.90;;;;;;5069920;28;20027;-59
2022/06/25 12:52:36;;;;;;;2.83;1.00;;;25.70;99.90;;;;;;5068970;28;20039;-59
2022/06/25 12:55:02;;;;;;;2.53;1.10;;;25.70;99.90;;;;;;5069454;28;20033;-59
2022/06/25 12:57:30;;;;;;;3.38;1.30;;;25.60;99.90;;;;;;5069879;28;20063;-59
2022/06/25 12:59:58;;;;;;;3.28;0.90;;;25.60;99.90;;;;;;5069568;28;20021;-58
2022/06/25 13:02:23;;;;;;;3.70;0.80;;;25.40;99.90;;;;;;5070260;28;20024;-57
2022/06/25 13:04:50;;;;;;;1.65;0.70;;;25.60;99.90;;;;;;5073649;28;20093;-59